PHL weather

Philadelphia International Airport
Philadelphia, Pennsylvania, United States

Public forecast

Using degrees Fahrenheit for public forecast. Weather courtesy of forecast.io.

METAR (pilot weather report)

Retrieved 2017/03/29 08:54 UTC (14 minutes ago):

KPHL 290854Z 33015KT 10SM SCT060 09/06 A3001

TAF (pilot weather forecast)

Retrieved 2017/03/29 06:48 UTC (2 hours ago):

TAF KPHL 290540Z 2906/3012 34004KT P6SM BKN040 FM291000 35010KT P6SM BKN040 FM291400 34013G20KT P6SM SCT040 FM292300 34008KT P6SM SKC